sensor_id;sensor_type;location;lat;lon;timestamp;pressure;altitude;pressure_sealevel;temperature;humidity
20889;BME280;10604;51.976;7.594;2023-04-22T00:02:11;100149.59;;;14.59;80.06
20889;BME280;10604;51.976;7.594;2023-04-22T00:04:40;100147.34;;;14.51;79.70
20889;BME280;10604;51.976;7.594;2023-04-22T00:07:06;100142.34;;;14.29;80.00
20889;BME280;10604;51.976;7.594;2023-04-22T00:09:31;100142.69;;;14.23;79.89
20889;BME280;10604;51.976;7.594;2023-04-22T00:11:56;100142.16;;;14.17;79.77
20889;BME280;10604;51.976;7.594;2023-04-22T00:14:22;100141.50;;;14.13;79.93
20889;BME280;10604;51.976;7.594;2023-04-22T00:16:48;100134.47;;;14.12;80.10
20889;BME280;10604;51.976;7.594;2023-04-22T00:19:13;100150.38;;;14.12;79.88
20889;BME280;10604;51.976;7.594;2023-04-22T00:21:38;100161.81;;;13.97;80.22
20889;BME280;10604;51.976;7.594;2023-04-22T00:24:03;100155.56;;;13.98;79.87
20889;BME280;10604;51.976;7.594;2023-04-22T00:26:29;100159.09;;;13.98;79.47
20889;BME280;10604;51.976;7.594;2023-04-22T00:28:54;100158.56;;;13.92;79.34
20889;BME280;10604;51.976;7.594;2023-04-22T00:31:19;100145.78;;;13.83;79.34
20889;BME280;10604;51.976;7.594;2023-04-22T00:33:45;100146.38;;;13.88;79.22
20889;BME280;10604;51.976;7.594;2023-04-22T00:36:10;100152.66;;;14.02;79.23
20889;BME280;10604;51.976;7.594;2023-04-22T00:38:35;100152.75;;;14.01;79.84
20889;BME280;10604;51.976;7.594;2023-04-22T00:41:01;100156.91;;;13.89;79.41
20889;BME280;10604;51.976;7.594;2023-04-22T00:43:26;100148.59;;;13.80;79.43
20889;BME280;10604;51.976;7.594;2023-04-22T00:45:52;100141.34;;;13.66;79.12
20889;BME280;10604;51.976;7.594;2023-04-22T00:48:17;100144.66;;;13.71;79.02
20889;BME280;10604;51.976;7.594;2023-04-22T00:50:42;100149.38;;;13.64;78.64
20889;BME280;10604;51.976;7.594;2023-04-22T00:53:07;100141.44;;;13.64;78.96
20889;BME280;10604;51.976;7.594;2023-04-22T00:55:33;100148.56;;;13.64;78.61
20889;BME280;10604;51.976;7.594;2023-04-22T00:57:59;100150.25;;;13.65;78.91
20889;BME280;10604;51.976;7.594;2023-04-22T01:00:25;100139.44;;;13.52;78.35
20889;BME280;10604;51.976;7.594;2023-04-22T01:02:52;100134.69;;;13.42;78.53
20889;BME280;10604;51.976;7.594;2023-04-22T01:05:18;100130.25;;;13.42;78.50
20889;BME280;10604;51.976;7.594;2023-04-22T01:07:44;100129.25;;;13.27;78.39
20889;BME280;10604;51.976;7.594;2023-04-22T01:10:09;100135.25;;;13.31;78.94
20889;BME280;10604;51.976;7.594;2023-04-22T01:12:34;100134.00;;;13.21;79.12
20889;BME280;10604;51.976;7.594;2023-04-22T01:15:00;100133.69;;;13.27;78.79
20889;BME280;10604;51.976;7.594;2023-04-22T01:17:25;100127.94;;;13.19;78.47
20889;BME280;10604;51.976;7.594;2023-04-22T01:19:51;100127.00;;;13.20;78.68
20889;BME280;10604;51.976;7.594;2023-04-22T01:22:16;100127.31;;;13.14;79.14
20889;BME280;10604;51.976;7.594;2023-04-22T01:24:42;100124.47;;;13.00;79.52
20889;BME280;10604;51.976;7.594;2023-04-22T01:27:07;100119.94;;;13.02;78.84
20889;BME280;10604;51.976;7.594;2023-04-22T01:29:35;100116.97;;;13.08;78.73
20889;BME280;10604;51.976;7.594;2023-04-22T01:32:00;100117.53;;;12.97;79.00
20889;BME280;10604;51.976;7.594;2023-04-22T01:34:26;100121.47;;;12.88;78.88
20889;BME280;10604;51.976;7.594;2023-04-22T01:36:52;100117.91;;;12.89;79.05
20889;BME280;10604;51.976;7.594;2023-04-22T01:39:17;100125.53;;;12.78;78.39
20889;BME280;10604;51.976;7.594;2023-04-22T01:41:42;100120.41;;;12.57;80.05
20889;BME280;10604;51.976;7.594;2023-04-22T01:44:08;100125.09;;;12.69;79.62
20889;BME280;10604;51.976;7.594;2023-04-22T01:46:33;100124.53;;;12.62;79.68
20889;BME280;10604;51.976;7.594;2023-04-22T01:48:58;100122.41;;;12.70;79.54
20889;BME280;10604;51.976;7.594;2023-04-22T01:51:23;100125.66;;;12.75;79.33
20889;BME280;10604;51.976;7.594;2023-04-22T01:53:49;100132.31;;;12.65;79.56
20889;BME280;10604;51.976;7.594;2023-04-22T01:56:15;100133.19;;;12.66;79.65
20889;BME280;10604;51.976;7.594;2023-04-22T01:58:40;100136.38;;;12.72;79.05
20889;BME280;10604;51.976;7.594;2023-04-22T02:01:07;100134.38;;;12.77;79.60
20889;BME280;10604;51.976;7.594;2023-04-22T02:03:33;100136.38;;;12.72;78.88
20889;BME280;10604;51.976;7.594;2023-04-22T02:05:58;100127.50;;;12.73;79.16
20889;BME280;10604;51.976;7.594;2023-04-22T02:08:23;100130.09;;;12.75;79.57
20889;BME280;10604;51.976;7.594;2023-04-22T02:10:49;100127.50;;;12.73;79.39
20889;BME280;10604;51.976;7.594;2023-04-22T02:13:14;100125.34;;;12.81;78.92
20889;BME280;10604;51.976;7.594;2023-04-22T02:15:39;100124.94;;;12.72;79.32
20889;BME280;10604;51.976;7.594;2023-04-22T02:18:05;100129.97;;;12.78;79.35
20889;BME280;10604;51.976;7.594;2023-04-22T02:20:30;100134.22;;;12.80;79.66
20889;BME280;10604;51.976;7.594;2023-04-22T02:22:56;100135.50;;;12.90;78.84
20889;BME280;10604;51.976;7.594;2023-04-22T02:25:21;100136.13;;;12.95;78.81
20889;BME280;10604;51.976;7.594;2023-04-22T02:27:46;100134.41;;;12.94;79.01
20889;BME280;10604;51.976;7.594;2023-04-22T02:30:11;100127.31;;;12.95;78.76
20889;BME280;10604;51.976;7.594;2023-04-22T02:32:37;100134.56;;;12.91;78.82
20889;BME280;10604;51.976;7.594;2023-04-22T02:35:04;100124.06;;;12.90;79.10
20889;BME280;10604;51.976;7.594;2023-04-22T02:37:29;100129.47;;;12.87;79.30
20889;BME280;10604;51.976;7.594;2023-04-22T02:39:55;100122.75;;;12.99;78.90
20889;BME280;10604;51.976;7.594;2023-04-22T02:42:20;100125.34;;;12.81;79.59
20889;BME280;10604;51.976;7.594;2023-04-22T02:44:45;100130.47;;;12.67;80.11
20889;BME280;10604;51.976;7.594;2023-04-22T02:47:10;100124.56;;;12.79;79.91
20889;BME280;10604;51.976;7.594;2023-04-22T02:49:36;100114.78;;;12.81;79.37
20889;BME280;10604;51.976;7.594;2023-04-22T02:52:01;100125.66;;;12.75;79.73
20889;BME280;10604;51.976;7.594;2023-04-22T02:54:26;100117.78;;;12.74;79.53
20889;BME280;10604;51.976;7.594;2023-04-22T02:56:51;100117.09;;;12.70;80.64
20889;BME280;10604;51.976;7.594;2023-04-22T02:59:17;100118.03;;;12.86;79.52
20889;BME280;10604;51.976;7.594;2023-04-22T03:01:42;100118.81;;;12.88;79.73
20889;BME280;10604;51.976;7.594;2023-04-22T03:04:07;100117.72;;;12.75;79.87
20889;BME280;10604;51.976;7.594;2023-04-22T03:06:32;100118.34;;;12.80;79.83
20889;BME280;10604;51.976;7.594;2023-04-22T03:08:58;100112.59;;;12.89;79.34
20889;BME280;10604;51.976;7.594;2023-04-22T03:11:23;100112.28;;;12.78;79.92
20889;BME280;10604;51.976;7.594;2023-04-22T03:13:48;100115.06;;;12.75;80.29
20889;BME280;10604;51.976;7.594;2023-04-22T03:16:15;100113.22;;;12.77;79.90
20889;BME280;10604;51.976;7.594;2023-04-22T03:18:40;100109.91;;;12.72;80.18
20889;BME280;10604;51.976;7.594;2023-04-22T03:21:05;100107.06;;;12.77;80.36
20889;BME280;10604;51.976;7.594;2023-04-22T03:23:31;100115.06;;;12.75;79.81
20889;BME280;10604;51.976;7.594;2023-04-22T03:25:56;100109.78;;;12.75;80.03
20889;BME280;10604;51.976;7.594;2023-04-22T03:28:21;100109.47;;;12.81;79.50
20889;BME280;10604;51.976;7.594;2023-04-22T03:30:47;100107.63;;;12.83;79.35
20889;BME280;10604;51.976;7.594;2023-04-22T03:33:12;100101.59;;;12.80;79.36
20889;BME280;10604;51.976;7.594;2023-04-22T03:35:37;100104.66;;;12.89;79.48
20889;BME280;10604;51.976;7.594;2023-04-22T03:38:03;100107.19;;;12.92;79.51
20889;BME280;10604;51.976;7.594;2023-04-22T03:40:28;100105.44;;;12.91;79.42
20889;BME280;10604;51.976;7.594;2023-04-22T03:42:53;100101.03;;;12.92;79.04
20889;BME280;10604;51.976;7.594;2023-04-22T03:45:18;100091.28;;;12.92;79.49
20889;BME280;10604;51.976;7.594;2023-04-22T03:47:44;100091.56;;;12.86;79.33
20889;BME280;10604;51.976;7.594;2023-04-22T03:50:09;100089.56;;;12.91;79.33
20889;BME280;10604;51.976;7.594;2023-04-22T03:52:35;100093.16;;;12.90;79.30
20889;BME280;10604;51.976;7.594;2023-04-22T03:55:00;100087.53;;;12.97;79.37
20889;BME280;10604;51.976;7.594;2023-04-22T03:57:25;100083.97;;;12.98;79.31
20889;BME280;10604;51.976;7.594;2023-04-22T03:59:51;100087.22;;;13.03;79.22
20889;BME280;10604;51.976;7.594;2023-04-22T04:02:16;100091.13;;;12.95;79.13
20889;BME280;10604;51.976;7.594;2023-04-22T04:04:41;100086.13;;;12.89;79.49
20889;BME280;10604;51.976;7.594;2023-04-22T04:07:06;100075.41;;;12.92;79.51
20889;BME280;10604;51.976;7.594;2023-04-22T04:09:32;100075.22;;;12.95;79.49
20889;BME280;10604;51.976;7.594;2023-04-22T04:11:57;100071.03;;;13.09;78.91
20889;BME280;10604;51.976;7.594;2023-04-22T04:14:22;100065.28;;;13.18;79.06
20889;BME280;10604;51.976;7.594;2023-04-22T04:16:48;100077.00;;;13.14;78.68
20889;BME280;10604;51.976;7.594;2023-04-22T04:19:13;100068.94;;;13.15;78.86
20889;BME280;10604;51.976;7.594;2023-04-22T04:21:38;100077.00;;;13.14;78.63
20889;BME280;10604;51.976;7.594;2023-04-22T04:24:04;100078.03;;;13.10;79.23
20889;BME280;10604;51.976;7.594;2023-04-22T04:26:29;100076.19;;;13.12;79.50
20889;BME280;10604;51.976;7.594;2023-04-22T04:28:56;100073.50;;;13.13;79.57
20889;BME280;10604;51.976;7.594;2023-04-22T04:31:22;100070.94;;;13.10;79.53
20889;BME280;10604;51.976;7.594;2023-04-22T04:33:48;100075.47;;;13.08;79.27
20889;BME280;10604;51.976;7.594;2023-04-22T04:36:14;100070.59;;;13.18;79.41
20889;BME280;10604;51.976;7.594;2023-04-22T04:38:39;100072.31;;;13.19;79.25
20889;BME280;10604;51.976;7.594;2023-04-22T04:41:04;100066.75;;;13.23;79.21
20889;BME280;10604;51.976;7.594;2023-04-22T04:43:32;100058.69;;;13.26;79.30
20889;BME280;10604;51.976;7.594;2023-04-22T04:45:57;100059.69;;;13.24;78.99
20889;BME280;10604;51.976;7.594;2023-04-22T04:48:23;100059.03;;;13.36;79.31
20889;BME280;10604;51.976;7.594;2023-04-22T04:50:51;100064.03;;;13.42;79.28
20889;BME280;10604;51.976;7.594;2023-04-22T04:53:18;100062.66;;;13.35;79.79
20889;BME280;10604;51.976;7.594;2023-04-22T04:55:44;100070.19;;;13.43;79.46
20889;BME280;10604;51.976;7.594;2023-04-22T04:58:09;100066.50;;;13.45;79.36
20889;BME280;10604;51.976;7.594;2023-04-22T05:00:35;100065.25;;;13.52;79.37
20889;BME280;10604;51.976;7.594;2023-04-22T05:03:00;100067.56;;;13.58;79.06
20889;BME280;10604;51.976;7.594;2023-04-22T05:05:25;100057.59;;;13.63;79.08
20889;BME280;10604;51.976;7.594;2023-04-22T05:07:50;100055.53;;;13.68;78.77
20889;BME280;10604;51.976;7.594;2023-04-22T05:10:17;100051.78;;;13.72;78.46
20889;BME280;10604;51.976;7.594;2023-04-22T05:12:43;100059.91;;;13.69;78.62
20889;BME280;10604;51.976;7.594;2023-04-22T05:15:10;100051.44;;;13.79;78.28
20889;BME280;10604;51.976;7.594;2023-04-22T05:17:35;100050.28;;;13.84;78.59
20889;BME280;10604;51.976;7.594;2023-04-22T05:20:01;100050.44;;;13.81;78.63
20889;BME280;10604;51.976;7.594;2023-04-22T05:22:26;100058.13;;;13.86;78.69
20889;BME280;10604;51.976;7.594;2023-04-22T05:24:51;100055.06;;;13.78;78.75
20889;BME280;10604;51.976;7.594;2023-04-22T05:27:16;100059.09;;;13.85;79.14
20889;BME280;10604;51.976;7.594;2023-04-22T05:29:42;100061.06;;;13.97;79.19
20889;BME280;10604;51.976;7.594;2023-04-22T05:32:07;100054.81;;;13.98;79.03
20889;BME280;10604;51.976;7.594;2023-04-22T05:34:35;100063.63;;;13.98;79.17
20889;BME280;10604;51.976;7.594;2023-04-22T05:37:02;100065.88;;;14.06;78.73
20889;BME280;10604;51.976;7.594;2023-04-22T05:39:27;100059.69;;;14.05;78.80
20889;BME280;10604;51.976;7.594;2023-04-22T05:41:53;100059.34;;;13.96;78.90
20889;BME280;10604;51.976;7.594;2023-04-22T05:44:18;100059.59;;;14.07;79.05
20889;BME280;10604;51.976;7.594;2023-04-22T05:46:44;100056.44;;;14.16;78.57
20889;BME280;10604;51.976;7.594;2023-04-22T05:49:09;100061.41;;;14.22;79.49
20889;BME280;10604;51.976;7.594;2023-04-22T05:51:34;100059.16;;;14.30;78.76
20889;BME280;10604;51.976;7.594;2023-04-22T05:54:00;100059.00;;;14.33;78.97
20889;BME280;10604;51.976;7.594;2023-04-22T05:56:25;100049.59;;;14.43;78.58
20889;BME280;10604;51.976;7.594;2023-04-22T05:58:50;100049.44;;;14.46;79.19
20889;BME280;10604;51.976;7.594;2023-04-22T06:01:15;100045.84;;;14.47;79.70
20889;BME280;10604;51.976;7.594;2023-04-22T06:03:41;100043.13;;;14.49;79.40
20889;BME280;10604;51.976;7.594;2023-04-22T06:06:06;100045.13;;;14.60;79.01
20889;BME280;10604;51.976;7.594;2023-04-22T06:08:31;100040.09;;;14.55;78.91
20889;BME280;10604;51.976;7.594;2023-04-22T06:10:57;100044.78;;;14.66;79.74
20889;BME280;10604;51.976;7.594;2023-04-22T06:13:22;100045.19;;;14.74;79.04
20889;BME280;10604;51.976;7.594;2023-04-22T06:15:47;100047.31;;;14.83;78.37
20889;BME280;10604;51.976;7.594;2023-04-22T06:18:12;100045.41;;;14.85;78.78
20889;BME280;10604;51.976;7.594;2023-04-22T06:20:38;100039.88;;;14.74;78.80
20889;BME280;10604;51.976;7.594;2023-04-22T06:23:03;100037.38;;;14.71;80.09
20889;BME280;10604;51.976;7.594;2023-04-22T06:25:29;100041.59;;;14.75;80.31
20889;BME280;10604;51.976;7.594;2023-04-22T06:27:55;100040.09;;;14.85;79.83
20889;BME280;10604;51.976;7.594;2023-04-22T06:30:20;100049.25;;;14.95;79.62
20889;BME280;10604;51.976;7.594;2023-04-22T06:32:45;100048.09;;;14.99;79.84
20889;BME280;10604;51.976;7.594;2023-04-22T06:35:11;100049.47;;;15.20;79.33
20889;BME280;10604;51.976;7.594;2023-04-22T06:37:36;100042.50;;;15.34;78.96
20889;BME280;10604;51.976;7.594;2023-04-22T06:40:01;100050.81;;;15.42;78.23
20889;BME280;10604;51.976;7.594;2023-04-22T06:42:27;100057.47;;;15.49;78.05
20889;BME280;10604;51.976;7.594;2023-04-22T06:44:52;100055.25;;;15.57;78.77
20889;BME280;10604;51.976;7.594;2023-04-22T06:47:17;100063.97;;;15.59;78.08
20889;BME280;10604;51.976;7.594;2023-04-22T06:49:43;100060.84;;;15.66;78.50
20889;BME280;10604;51.976;7.594;2023-04-22T06:52:09;100062.25;;;15.86;78.85
20889;BME280;10604;51.976;7.594;2023-04-22T06:54:34;100064.91;;;16.00;78.74
20889;BME280;10604;51.976;7.594;2023-04-22T06:56:59;100050.81;;;16.27;78.16
20889;BME280;10604;51.976;7.594;2023-04-22T06:59:25;100049.16;;;16.38;78.24
20889;BME280;10604;51.976;7.594;2023-04-22T07:01:50;100041.75;;;16.56;77.57
20889;BME280;10604;51.976;7.594;2023-04-22T07:04:16;100042.94;;;16.92;76.90
20889;BME280;10604;51.976;7.594;2023-04-22T07:06:41;100036.16;;;17.13;77.24
20889;BME280;10604;51.976;7.594;2023-04-22T07:09:07;100039.63;;;17.40;75.98
20889;BME280;10604;51.976;7.594;2023-04-22T07:11:32;100038.44;;;17.70;75.14
20889;BME280;10604;51.976;7.594;2023-04-22T07:13:58;100038.53;;;17.55;74.11
20889;BME280;10604;51.976;7.594;2023-04-22T07:16:23;100030.84;;;17.89;73.34
20889;BME280;10604;51.976;7.594;2023-04-22T07:18:49;100025.66;;;18.11;72.63
20889;BME280;10604;51.976;7.594;2023-04-22T07:21:15;100037.59;;;18.18;72.93
20889;BME280;10604;51.976;7.594;2023-04-22T07:23:40;100037.22;;;18.35;72.49
20889;BME280;10604;51.976;7.594;2023-04-22T07:26:05;100033.78;;;18.33;71.07
20889;BME280;10604;51.976;7.594;2023-04-22T07:28:30;100031.81;;;18.24;70.14
20889;BME280;10604;51.976;7.594;2023-04-22T07:30:56;100038.13;;;18.60;70.64
20889;BME280;10604;51.976;7.594;2023-04-22T07:33:21;100037.19;;;18.72;70.67
20889;BME280;10604;51.976;7.594;2023-04-22T07:35:46;100033.38;;;18.63;69.05
20889;BME280;10604;51.976;7.594;2023-04-22T07:38:12;100030.13;;;18.71;69.92
20889;BME280;10604;51.976;7.594;2023-04-22T07:40:37;100028.75;;;18.89;68.39
20889;BME280;10604;51.976;7.594;2023-04-22T07:43:03;100034.63;;;18.70;68.77
20889;BME280;10604;51.976;7.594;2023-04-22T07:45:29;100027.19;;;18.63;69.24
20889;BME280;10604;51.976;7.594;2023-04-22T07:47:55;100032.88;;;18.82;69.24
20889;BME280;10604;51.976;7.594;2023-04-22T07:50:20;100029.44;;;18.80;67.22
20889;BME280;10604;51.976;7.594;2023-04-22T07:52:45;100032.28;;;18.90;67.16
20889;BME280;10604;51.976;7.594;2023-04-22T07:55:11;100030.56;;;19.24;66.80
20889;BME280;10604;51.976;7.594;2023-04-22T07:57:36;100034.53;;;19.53;66.27
20889;BME280;10604;51.976;7.594;2023-04-22T08:00:06;100038.91;;;19.65;65.65
20889;BME280;10604;51.976;7.594;2023-04-22T08:02:31;100030.00;;;19.76;64.73
20889;BME280;10604;51.976;7.594;2023-04-22T08:04:57;100024.41;;;20.01;63.46
20889;BME280;10604;51.976;7.594;2023-04-22T08:07:22;100022.31;;;20.16;61.75
20889;BME280;10604;51.976;7.594;2023-04-22T08:09:47;100017.09;;;20.03;63.35
20889;BME280;10604;51.976;7.594;2023-04-22T08:12:12;100029.97;;;20.20;61.27
20889;BME280;10604;51.976;7.594;2023-04-22T08:14:38;100015.66;;;20.53;61.01
20889;BME280;10604;51.976;7.594;2023-04-22T08:17:03;100017.88;;;20.48;60.30
20889;BME280;10604;51.976;7.594;2023-04-22T08:19:29;100012.06;;;20.96;59.37
20889;BME280;10604;51.976;7.594;2023-04-22T08:21:54;100018.78;;;21.22;57.53
20889;BME280;10604;51.976;7.594;2023-04-22T08:24:20;100012.44;;;21.54;57.39
20889;BME280;10604;51.976;7.594;2023-04-22T08:26:45;100006.34;;;21.82;55.95
20889;BME280;10604;51.976;7.594;2023-04-22T08:29:10;100008.59;;;21.77;54.65
20889;BME280;10604;51.976;7.594;2023-04-22T08:31:36;100002.78;;;22.02;53.45
20889;BME280;10604;51.976;7.594;2023-04-22T08:34:01;99996.00;;;22.17;53.85
20889;BME280;10604;51.976;7.594;2023-04-22T08:36:26;100010.78;;;22.52;52.25
20889;BME280;10604;51.976;7.594;2023-04-22T08:38:52;100002.03;;;22.88;52.29
20889;BME280;10604;51.976;7.594;2023-04-22T08:41:18;100004.59;;;22.99;50.22
20889;BME280;10604;51.976;7.594;2023-04-22T08:43:45;100006.25;;;23.20;49.19
20889;BME280;10604;51.976;7.594;2023-04-22T08:46:11;100004.78;;;23.35;48.33
20889;BME280;10604;51.976;7.594;2023-04-22T08:48:36;99999.69;;;23.32;47.58
20889;BME280;10604;51.976;7.594;2023-04-22T08:51:02;100000.19;;;23.64;46.83
20889;BME280;10604;51.976;7.594;2023-04-22T08:53:27;99990.44;;;23.91;47.06
20889;BME280;10604;51.976;7.594;2023-04-22T08:55:52;99980.38;;;24.55;46.60
20889;BME280;10604;51.976;7.594;2023-04-22T08:58:19;99990.41;;;24.99;44.72
20889;BME280;10604;51.976;7.594;2023-04-22T09:00:45;99987.84;;;24.97;45.99
20889;BME280;10604;51.976;7.594;2023-04-22T09:03:11;99982.69;;;24.68;45.71
20889;BME280;10604;51.976;7.594;2023-04-22T09:05:36;99979.84;;;24.34;43.58
20889;BME280;10604;51.976;7.594;2023-04-22T09:08:03;99983.75;;;24.22;44.30
20889;BME280;10604;51.976;7.594;2023-04-22T09:10:29;99980.16;;;24.49;44.61
20889;BME280;10604;51.976;7.594;2023-04-22T09:12:55;99981.13;;;24.66;44.46
20889;BME280;10604;51.976;7.594;2023-04-22T09:15:21;99982.22;;;24.73;42.54
20889;BME280;10604;51.976;7.594;2023-04-22T09:17:46;99974.66;;;24.58;42.94
20889;BME280;10604;51.976;7.594;2023-04-22T09:20:11;99977.66;;;24.73;42.54
20889;BME280;10604;51.976;7.594;2023-04-22T09:22:46;99968.81;;;25.24;42.30
20889;BME280;10604;51.976;7.594;2023-04-22T09:25:15;99970.78;;;25.14;42.11
20889;BME280;10604;51.976;7.594;2023-04-22T09:27:41;99974.31;;;25.41;42.04
20889;BME280;10604;51.976;7.594;2023-04-22T09:30:06;99970.84;;;25.82;42.72
20889;BME280;10604;51.976;7.594;2023-04-22T09:32:32;99976.88;;;26.18;41.73
20889;BME280;10604;51.976;7.594;2023-04-22T09:34:57;99966.31;;;26.41;41.05
20889;BME280;10604;51.976;7.594;2023-04-22T09:37:26;99965.22;;;26.18;40.69
20889;BME280;10604;51.976;7.594;2023-04-22T09:39:52;99956.53;;;26.48;40.27
20889;BME280;10604;51.976;7.594;2023-04-22T09:42:17;99961.28;;;26.70;39.83
20889;BME280;10604;51.976;7.594;2023-04-22T09:44:47;99948.09;;;26.92;39.67
20889;BME280;10604;51.976;7.594;2023-04-22T09:47:13;99952.13;;;26.87;39.47
20889;BME280;10604;51.976;7.594;2023-04-22T09:49:38;99947.31;;;27.46;40.50
20889;BME280;10604;51.976;7.594;2023-04-22T09:52:03;99953.81;;;26.56;39.04
20889;BME280;10604;51.976;7.594;2023-04-22T09:54:29;99955.31;;;26.50;40.12
20889;BME280;10604;51.976;7.594;2023-04-22T09:56:54;99951.00;;;26.16;40.73
20889;BME280;10604;51.976;7.594;2023-04-22T09:59:24;99934.03;;;25.89;41.73
20889;BME280;10604;51.976;7.594;2023-04-22T10:01:50;99931.81;;;26.51;41.35
20889;BME280;10604;51.976;7.594;2023-04-22T10:04:16;99929.44;;;26.80;39.08
20889;BME280;10604;51.976;7.594;2023-04-22T10:06:45;99921.63;;;27.34;38.99
20889;BME280;10604;51.976;7.594;2023-04-22T10:09:10;99918.78;;;27.75;37.55
20889;BME280;10604;51.976;7.594;2023-04-22T10:11:36;99921.72;;;27.96;37.19
20889;BME280;10604;51.976;7.594;2023-04-22T10:14:01;99920.38;;;27.92;36.49
20889;BME280;10604;51.976;7.594;2023-04-22T10:16:27;99911.13;;;28.09;37.38
20889;BME280;10604;51.976;7.594;2023-04-22T10:18:54;99909.53;;;27.53;36.57
20889;BME280;10604;51.976;7.594;2023-04-22T10:21:23;99914.81;;;27.38;36.12
20889;BME280;10604;51.976;7.594;2023-04-22T10:23:49;99911.75;;;27.49;35.70
20889;BME280;10604;51.976;7.594;2023-04-22T10:28:59;99900.78;;;28.81;33.89
20889;BME280;10604;51.976;7.594;2023-04-22T10:31:24;99906.97;;;28.75;32.73
20889;BME280;10604;51.976;7.594;2023-04-22T10:33:49;99904.06;;;28.31;33.72
20889;BME280;10604;51.976;7.594;2023-04-22T10:36:16;99908.16;;;28.27;33.29
20889;BME280;10604;51.976;7.594;2023-04-22T10:41:25;99898.38;;;28.63;35.13
20889;BME280;10604;51.976;7.594;2023-04-22T10:43:54;99898.66;;;29.20;33.98
20889;BME280;10604;51.976;7.594;2023-04-22T10:48:57;99895.94;;;30.51;32.45
20889;BME280;10604;51.976;7.594;2023-04-22T10:54:07;99889.91;;;29.98;31.99
20889;BME280;10604;51.976;7.594;2023-04-22T10:56:32;99891.50;;;31.27;32.64
20889;BME280;10604;51.976;7.594;2023-04-22T10:58:57;99891.25;;;30.45;30.92
20889;BME280;10604;51.976;7.594;2023-04-22T11:01:23;99897.34;;;30.26;31.32
20889;BME280;10604;51.976;7.594;2023-04-22T11:03:51;99888.75;;;30.08;30.80
20889;BME280;10604;51.976;7.594;2023-04-22T11:06:17;99888.13;;;30.69;31.01
20889;BME280;10604;51.976;7.594;2023-04-22T11:08:43;99881.00;;;30.68;31.35
20889;BME280;10604;51.976;7.594;2023-04-22T11:11:09;99880.38;;;30.66;30.91
20889;BME280;10604;51.976;7.594;2023-04-22T11:13:35;99875.75;;;30.95;31.79
20889;BME280;10604;51.976;7.594;2023-04-22T11:16:00;99871.09;;;30.89;30.47
20889;BME280;10604;51.976;7.594;2023-04-22T11:18:26;99873.81;;;31.10;30.55
20889;BME280;10604;51.976;7.594;2023-04-22T11:20:52;99869.56;;;30.80;29.77
20889;BME280;10604;51.976;7.594;2023-04-22T11:23:21;99872.75;;;30.83;29.95
20889;BME280;10604;51.976;7.594;2023-04-22T11:25:47;99861.28;;;29.52;30.33
20889;BME280;10604;51.976;7.594;2023-04-22T11:28:12;99865.59;;;28.65;32.33
20889;BME280;10604;51.976;7.594;2023-04-22T11:30:38;99850.22;;;27.89;33.21
20889;BME280;10604;51.976;7.594;2023-04-22T11:33:03;99858.19;;;27.51;35.06
20889;BME280;10604;51.976;7.594;2023-04-22T11:35:29;99852.72;;;27.67;34.49
20889;BME280;10604;51.976;7.594;2023-04-22T11:37:59;99864.56;;;27.75;33.93
20889;BME280;10604;51.976;7.594;2023-04-22T11:40:26;99866.75;;;28.70;34.25
20889;BME280;10604;51.976;7.594;2023-04-22T11:42:52;99855.25;;;29.71;32.14
20889;BME280;10604;51.976;7.594;2023-04-22T11:45:18;99861.16;;;30.74;31.34
20889;BME280;10604;51.976;7.594;2023-04-22T11:47:43;99855.00;;;31.22;28.26
20889;BME280;10604;51.976;7.594;2023-04-22T11:50:14;99847.59;;;29.60;29.76
20889;BME280;10604;51.976;7.594;2023-04-22T11:52:49;99853.19;;;29.73;30.24
20889;BME280;10604;51.976;7.594;2023-04-22T11:55:27;99866.34;;;30.06;30.42
20889;BME280;10604;51.976;7.594;2023-04-22T11:57:57;99848.97;;;30.07;30.20
20889;BME280;10604;51.976;7.594;2023-04-22T12:00:23;99850.09;;;30.12;31.50
20889;BME280;10604;51.976;7.594;2023-04-22T12:02:54;99851.09;;;31.03;30.75
20889;BME280;10604;51.976;7.594;2023-04-22T12:05:20;99845.13;;;32.22;29.39
20889;BME280;10604;51.976;7.594;2023-04-22T12:07:45;99844.31;;;31.61;29.88
20889;BME280;10604;51.976;7.594;2023-04-22T12:10:11;99845.88;;;30.80;29.54
20889;BME280;10604;51.976;7.594;2023-04-22T12:12:38;99839.75;;;29.36;30.95
20889;BME280;10604;51.976;7.594;2023-04-22T12:15:07;99840.38;;;28.79;32.24
20889;BME280;10604;51.976;7.594;2023-04-22T12:17:33;99838.81;;;28.24;33.35
20889;BME280;10604;51.976;7.594;2023-04-22T12:19:58;99847.03;;;28.08;34.24
20889;BME280;10604;51.976;7.594;2023-04-22T12:22:24;99841.34;;;28.26;33.59
20889;BME280;10604;51.976;7.594;2023-04-22T12:24:50;99849.88;;;27.92;33.10
20889;BME280;10604;51.976;7.594;2023-04-22T12:27:15;99845.63;;;27.66;32.76
20889;BME280;10604;51.976;7.594;2023-04-22T12:29:41;99836.13;;;27.71;33.18
20889;BME280;10604;51.976;7.594;2023-04-22T12:32:14;99836.59;;;27.74;32.78
20889;BME280;10604;51.976;7.594;2023-04-22T12:34:39;99842.22;;;27.64;33.75
20889;BME280;10604;51.976;7.594;2023-04-22T12:37:04;99845.09;;;27.24;35.13
20889;BME280;10604;51.976;7.594;2023-04-22T12:39:30;99836.78;;;26.70;34.78
20889;BME280;10604;51.976;7.594;2023-04-22T12:41:56;99840.81;;;26.66;36.31
20889;BME280;10604;51.976;7.594;2023-04-22T12:44:21;99839.47;;;26.70;36.77
20889;BME280;10604;51.976;7.594;2023-04-22T12:46:46;99846.94;;;26.28;35.91
20889;BME280;10604;51.976;7.594;2023-04-22T12:49:12;99850.75;;;25.85;36.71
20889;BME280;10604;51.976;7.594;2023-04-22T12:51:38;99848.69;;;25.28;36.51
20889;BME280;10604;51.976;7.594;2023-04-22T12:54:03;99837.31;;;25.17;36.90
20889;BME280;10604;51.976;7.594;2023-04-22T12:56:29;99840.59;;;25.36;37.05